sensor_id;sensor_type;location;lat;lon;timestamp;temperature;humidity
14735;DHT22;7458;49.002;8.472;2023-07-20T00:01:47;23.00;66.70
14735;DHT22;7458;49.002;8.472;2023-07-20T00:04:14;22.90;56.00
14735;DHT22;7458;49.002;8.472;2023-07-20T00:06:40;22.80;56.10
14735;DHT22;7458;49.002;8.472;2023-07-20T00:09:07;22.50;67.50
14735;DHT22;7458;49.002;8.472;2023-07-20T00:11:36;22.60;56.70
14735;DHT22;7458;49.002;8.472;2023-07-20T00:14:06;22.60;68.80
14735;DHT22;7458;49.002;8.472;2023-07-20T00:21:26;22.50;68.90
14735;DHT22;7458;49.002;8.472;2023-07-20T00:23:51;22.30;57.60
14735;DHT22;7458;49.002;8.472;2023-07-20T00:31:09;22.30;57.40
14735;DHT22;7458;49.002;8.472;2023-07-20T00:33:35;22.10;69.10
14735;DHT22;7458;49.002;8.472;2023-07-20T00:36:01;22.40;69.40
14735;DHT22;7458;49.002;8.472;2023-07-20T00:38:27;22.20;58.60
14735;DHT22;7458;49.002;8.472;2023-07-20T00:40:53;22.20;69.90
14735;DHT22;7458;49.002;8.472;2023-07-20T00:43:19;22.40;65.70
14735;DHT22;7458;49.002;8.472;2023-07-20T00:45:45;22.40;70.20
14735;DHT22;7458;49.002;8.472;2023-07-20T00:48:13;21.90;70.10
14735;DHT22;7458;49.002;8.472;2023-07-20T00:50:40;22.10;58.70
14735;DHT22;7458;49.002;8.472;2023-07-20T00:53:06;22.30;71.00
14735;DHT22;7458;49.002;8.472;2023-07-20T00:58:00;22.10;58.60
14735;DHT22;7458;49.002;8.472;2023-07-20T01:00:26;21.90;70.20
14735;DHT22;7458;49.002;8.472;2023-07-20T01:05:18;21.90;72.60
14735;DHT22;7458;49.002;8.472;2023-07-20T01:08:01;21.90;73.50
14735;DHT22;7458;49.002;8.472;2023-07-20T01:10:56;21.60;60.50
14735;DHT22;7458;49.002;8.472;2023-07-20T01:13:28;21.60;73.90
14735;DHT22;7458;49.002;8.472;2023-07-20T01:16:01;21.70;74.20
14735;DHT22;7458;49.002;8.472;2023-07-20T01:21:01;21.80;74.70
14735;DHT22;7458;49.002;8.472;2023-07-20T01:34:49;21.30;62.40
14735;DHT22;7458;49.002;8.472;2023-07-20T01:39:46;21.10;63.40
14735;DHT22;7458;49.002;8.472;2023-07-20T01:49:31;21.20;75.70
14735;DHT22;7458;49.002;8.472;2023-07-20T02:01:41;21.30;76.00
14735;DHT22;7458;49.002;8.472;2023-07-20T02:04:07;20.90;76.70
14735;DHT22;7458;49.002;8.472;2023-07-20T02:08:59;20.90;76.40
14735;DHT22;7458;49.002;8.472;2023-07-20T02:11:25;20.90;76.10
14735;DHT22;7458;49.002;8.472;2023-07-20T02:28:28;20.50;78.20
14735;DHT22;7458;49.002;8.472;2023-07-20T02:55:16;20.30;78.60
14735;DHT22;7458;49.002;8.472;2023-07-20T02:57:42;20.20;79.10
14735;DHT22;7458;49.002;8.472;2023-07-20T03:00:08;20.20;79.30
14735;DHT22;7458;49.002;8.472;2023-07-20T03:51:21;20.00;82.60
14735;DHT22;7458;49.002;8.472;2023-07-20T03:53:47;19.80;82.20
14735;DHT22;7458;49.002;8.472;2023-07-20T03:56:12;20.20;82.40
14735;DHT22;7458;49.002;8.472;2023-07-20T04:03:30;19.60;83.30
14735;DHT22;7458;49.002;8.472;2023-07-20T04:05:56;19.60;83.40
14735;DHT22;7458;49.002;8.472;2023-07-20T04:08:25;19.90;84.40
14735;DHT22;7458;49.002;8.472;2023-07-20T04:10:51;19.90;84.90
14735;DHT22;7458;49.002;8.472;2023-07-20T04:13:17;19.70;74.20
14735;DHT22;7458;49.002;8.472;2023-07-20T04:15:43;19.70;73.70
14735;DHT22;7458;49.002;8.472;2023-07-20T04:18:09;19.40;84.40
14735;DHT22;7458;49.002;8.472;2023-07-20T04:20:38;20.00;84.60
14735;DHT22;7458;49.002;8.472;2023-07-20T04:25:34;19.70;73.90
14735;DHT22;7458;49.002;8.472;2023-07-20T04:28:05;19.70;86.90
14735;DHT22;7458;49.002;8.472;2023-07-20T04:30:35;19.70;87.30
14735;DHT22;7458;49.002;8.472;2023-07-20T04:33:02;19.40;88.10
14735;DHT22;7458;49.002;8.472;2023-07-20T04:35:52;19.40;77.50
14735;DHT22;7458;49.002;8.472;2023-07-20T04:38:20;19.50;77.40
14735;DHT22;7458;49.002;8.472;2023-07-20T04:40:50;19.60;88.60
14735;DHT22;7458;49.002;8.472;2023-07-20T04:43:16;19.70;76.50
14735;DHT22;7458;49.002;8.472;2023-07-20T04:45:43;20.10;87.70
14735;DHT22;7458;49.002;8.472;2023-07-20T04:48:11;19.90;76.30
14735;DHT22;7458;49.002;8.472;2023-07-20T04:50:41;19.90;77.00
14735;DHT22;7458;49.002;8.472;2023-07-20T04:53:09;20.00;76.00
14735;DHT22;7458;49.002;8.472;2023-07-20T04:55:39;20.10;75.90
14735;DHT22;7458;49.002;8.472;2023-07-20T04:58:05;20.40;87.10
14735;DHT22;7458;49.002;8.472;2023-07-20T05:00:34;20.10;75.30
14735;DHT22;7458;49.002;8.472;2023-07-20T05:03:04;20.10;76.40
14735;DHT22;7458;49.002;8.472;2023-07-20T05:10:24;20.10;74.70
14735;DHT22;7458;49.002;8.472;2023-07-20T05:12:50;20.10;86.00
14735;DHT22;7458;49.002;8.472;2023-07-20T05:15:15;20.20;86.00
14735;DHT22;7458;49.002;8.472;2023-07-20T05:17:41;20.30;85.70
14735;DHT22;7458;49.002;8.472;2023-07-20T05:20:07;20.50;85.70
14735;DHT22;7458;49.002;8.472;2023-07-20T05:22:38;20.40;85.30
14735;DHT22;7458;49.002;8.472;2023-07-20T05:25:07;20.50;85.00
14735;DHT22;7458;49.002;8.472;2023-07-20T05:27:36;20.90;75.80
14735;DHT22;7458;49.002;8.472;2023-07-20T05:30:03;20.60;74.30
14735;DHT22;7458;49.002;8.472;2023-07-20T05:32:30;20.70;84.30
14735;DHT22;7458;49.002;8.472;2023-07-20T05:34:55;20.80;74.20
14735;DHT22;7458;49.002;8.472;2023-07-20T05:37:21;20.90;84.10
14735;DHT22;7458;49.002;8.472;2023-07-20T05:39:47;21.00;74.10
14735;DHT22;7458;49.002;8.472;2023-07-20T05:42:13;21.00;83.30
14735;DHT22;7458;49.002;8.472;2023-07-20T05:44:40;21.10;73.70
14735;DHT22;7458;49.002;8.472;2023-07-20T05:47:06;20.80;83.00
14735;DHT22;7458;49.002;8.472;2023-07-20T05:49:32;21.00;72.80
14735;DHT22;7458;49.002;8.472;2023-07-20T05:51:58;21.00;73.20
14735;DHT22;7458;49.002;8.472;2023-07-20T05:54:24;21.50;83.00
14735;DHT22;7458;49.002;8.472;2023-07-20T05:59:17;21.30;71.50
14735;DHT22;7458;49.002;8.472;2023-07-20T06:01:43;21.50;82.40
14735;DHT22;7458;49.002;8.472;2023-07-20T06:04:09;21.60;72.70
14735;DHT22;7458;49.002;8.472;2023-07-20T06:06:35;21.70;72.40
14735;DHT22;7458;49.002;8.472;2023-07-20T06:09:00;21.80;72.30
14735;DHT22;7458;49.002;8.472;2023-07-20T06:11:30;21.90;81.30
14735;DHT22;7458;49.002;8.472;2023-07-20T06:13:57;22.00;71.30
14735;DHT22;7458;49.002;8.472;2023-07-20T06:16:28;22.30;70.50
14735;DHT22;7458;49.002;8.472;2023-07-20T06:18:53;22.90;69.40
14735;DHT22;7458;49.002;8.472;2023-07-20T06:21:19;24.10;69.70
14735;DHT22;7458;49.002;8.472;2023-07-20T06:23:46;24.30;63.90
14735;DHT22;7458;49.002;8.472;2023-07-20T06:26:15;24.50;64.20
14735;DHT22;7458;49.002;8.472;2023-07-20T06:28:45;24.50;63.20
14735;DHT22;7458;49.002;8.472;2023-07-20T06:33:37;24.30;62.10
14735;DHT22;7458;49.002;8.472;2023-07-20T06:36:03;23.90;63.70
14735;DHT22;7458;49.002;8.472;2023-07-20T06:38:29;23.40;74.10
14735;DHT22;7458;49.002;8.472;2023-07-20T06:40:55;23.40;65.50
14735;DHT22;7458;49.002;8.472;2023-07-20T06:43:21;23.40;65.20
14735;DHT22;7458;49.002;8.472;2023-07-20T06:45:51;23.70;65.80
14735;DHT22;7458;49.002;8.472;2023-07-20T06:48:19;24.80;71.00
14735;DHT22;7458;49.002;8.472;2023-07-20T06:50:45;25.00;62.60
14735;DHT22;7458;49.002;8.472;2023-07-20T06:53:10;25.00;60.50
14735;DHT22;7458;49.002;8.472;2023-07-20T06:55:36;25.70;60.10
14735;DHT22;7458;49.002;8.472;2023-07-20T06:58:02;26.10;59.40
14735;DHT22;7458;49.002;8.472;2023-07-20T07:00:28;26.40;57.90
14735;DHT22;7458;49.002;8.472;2023-07-20T07:02:54;27.10;57.00
14735;DHT22;7458;49.002;8.472;2023-07-20T07:05:19;29.20;55.80
14735;DHT22;7458;49.002;8.472;2023-07-20T07:07:45;29.60;51.90
14735;DHT22;7458;49.002;8.472;2023-07-20T07:10:11;29.10;50.80
14735;DHT22;7458;49.002;8.472;2023-07-20T07:12:37;29.80;50.60
14735;DHT22;7458;49.002;8.472;2023-07-20T07:15:04;28.90;52.00
14735;DHT22;7458;49.002;8.472;2023-07-20T07:17:37;30.90;48.80
14735;DHT22;7458;49.002;8.472;2023-07-20T07:20:04;31.70;48.70
14735;DHT22;7458;49.002;8.472;2023-07-20T07:22:30;30.60;53.40
14735;DHT22;7458;49.002;8.472;2023-07-20T07:24:56;30.60;47.40
14735;DHT22;7458;49.002;8.472;2023-07-20T07:27:25;30.70;47.70
14735;DHT22;7458;49.002;8.472;2023-07-20T07:29:51;32.60;45.40
14735;DHT22;7458;49.002;8.472;2023-07-20T07:32:17;32.90;45.80
14735;DHT22;7458;49.002;8.472;2023-07-20T07:34:43;34.40;43.70
14735;DHT22;7458;49.002;8.472;2023-07-20T07:37:11;34.90;41.30
14735;DHT22;7458;49.002;8.472;2023-07-20T07:39:37;34.80;40.70
14735;DHT22;7458;49.002;8.472;2023-07-20T07:42:03;33.60;41.50
14735;DHT22;7458;49.002;8.472;2023-07-20T07:44:29;32.30;43.20
14735;DHT22;7458;49.002;8.472;2023-07-20T07:46:55;31.20;45.20
14735;DHT22;7458;49.002;8.472;2023-07-20T07:49:20;30.10;47.40
14735;DHT22;7458;49.002;8.472;2023-07-20T07:51:46;30.20;54.60
14735;DHT22;7458;49.002;8.472;2023-07-20T07:54:12;30.10;46.90
14735;DHT22;7458;49.002;8.472;2023-07-20T07:56:41;29.20;47.80
14735;DHT22;7458;49.002;8.472;2023-07-20T07:59:08;29.50;49.90
14735;DHT22;7458;49.002;8.472;2023-07-20T08:01:33;29.20;56.70
14735;DHT22;7458;49.002;8.472;2023-07-20T08:04:00;29.00;48.30
14735;DHT22;7458;49.002;8.472;2023-07-20T08:06:25;28.30;50.40
14735;DHT22;7458;49.002;8.472;2023-07-20T08:08:51;28.90;50.70
14735;DHT22;7458;49.002;8.472;2023-07-20T08:11:17;29.40;50.20
14735;DHT22;7458;49.002;8.472;2023-07-20T08:13:43;30.50;68.70
14735;DHT22;7458;49.002;8.472;2023-07-20T08:16:09;30.20;47.20
14735;DHT22;7458;49.002;8.472;2023-07-20T08:18:35;30.20;47.50
14735;DHT22;7458;49.002;8.472;2023-07-20T08:21:01;29.50;48.90
14735;DHT22;7458;49.002;8.472;2023-07-20T08:25:53;28.00;50.40
14735;DHT22;7458;49.002;8.472;2023-07-20T08:28:19;27.50;52.80
14735;DHT22;7458;49.002;8.472;2023-07-20T08:30:49;27.30;54.00
14735;DHT22;7458;49.002;8.472;2023-07-20T08:33:16;27.70;65.40
14735;DHT22;7458;49.002;8.472;2023-07-20T08:35:44;28.30;51.80
14735;DHT22;7458;49.002;8.472;2023-07-20T08:38:10;29.20;50.50
14735;DHT22;7458;49.002;8.472;2023-07-20T08:40:44;29.80;49.90
14735;DHT22;7458;49.002;8.472;2023-07-20T08:43:11;30.40;48.20
14735;DHT22;7458;49.002;8.472;2023-07-20T08:45:39;30.90;52.60
14735;DHT22;7458;49.002;8.472;2023-07-20T08:48:06;30.50;46.80
14735;DHT22;7458;49.002;8.472;2023-07-20T08:50:34;30.80;46.60
14735;DHT22;7458;49.002;8.472;2023-07-20T08:53:01;31.30;47.00
14735;DHT22;7458;49.002;8.472;2023-07-20T08:55:28;31.50;46.70
14735;DHT22;7458;49.002;8.472;2023-07-20T08:57:56;31.30;45.50
14735;DHT22;7458;49.002;8.472;2023-07-20T09:00:24;31.40;45.60
14735;DHT22;7458;49.002;8.472;2023-07-20T09:02:52;30.30;45.50
14735;DHT22;7458;49.002;8.472;2023-07-20T09:05:23;29.40;47.60
14735;DHT22;7458;49.002;8.472;2023-07-20T09:07:53;29.10;50.00
14735;DHT22;7458;49.002;8.472;2023-07-20T09:10:22;28.70;48.40
14735;DHT22;7458;49.002;8.472;2023-07-20T09:12:49;29.70;49.70
14735;DHT22;7458;49.002;8.472;2023-07-20T09:15:16;29.60;56.90
14735;DHT22;7458;49.002;8.472;2023-07-20T09:17:47;30.00;56.20
14735;DHT22;7458;49.002;8.472;2023-07-20T09:20:16;29.10;52.70
14735;DHT22;7458;49.002;8.472;2023-07-20T09:22:43;28.20;50.30
14735;DHT22;7458;49.002;8.472;2023-07-20T09:25:13;27.40;59.40
14735;DHT22;7458;49.002;8.472;2023-07-20T09:27:42;27.20;50.70
14735;DHT22;7458;49.002;8.472;2023-07-20T09:30:11;27.30;51.50
14735;DHT22;7458;49.002;8.472;2023-07-20T09:32:47;28.00;50.40
14735;DHT22;7458;49.002;8.472;2023-07-20T09:35:19;28.30;48.60
14735;DHT22;7458;49.002;8.472;2023-07-20T09:37:59;28.80;47.10
14735;DHT22;7458;49.002;8.472;2023-07-20T09:40:27;29.10;47.10
14735;DHT22;7458;49.002;8.472;2023-07-20T09:42:54;29.20;46.10
14735;DHT22;7458;49.002;8.472;2023-07-20T09:45:39;29.30;46.40
14735;DHT22;7458;49.002;8.472;2023-07-20T09:48:08;29.40;45.70
14735;DHT22;7458;49.002;8.472;2023-07-20T09:50:51;29.50;45.40
14735;DHT22;7458;49.002;8.472;2023-07-20T09:53:18;29.10;46.00
14735;DHT22;7458;49.002;8.472;2023-07-20T09:55:46;28.80;46.00
14735;DHT22;7458;49.002;8.472;2023-07-20T09:58:14;28.80;44.60
14735;DHT22;7458;49.002;8.472;2023-07-20T10:00:42;28.90;45.10
14735;DHT22;7458;49.002;8.472;2023-07-20T10:03:16;28.90;45.60
14735;DHT22;7458;49.002;8.472;2023-07-20T10:06:06;28.90;45.50
14735;DHT22;7458;49.002;8.472;2023-07-20T10:08:37;28.80;46.00
14735;DHT22;7458;49.002;8.472;2023-07-20T10:11:05;28.70;46.10
14735;DHT22;7458;49.002;8.472;2023-07-20T10:13:38;28.80;45.10
14735;DHT22;7458;49.002;8.472;2023-07-20T10:16:10;29.10;45.40
14735;DHT22;7458;49.002;8.472;2023-07-20T10:21:19;29.60;59.40
14735;DHT22;7458;49.002;8.472;2023-07-20T10:23:46;29.40;46.40
14735;DHT22;7458;49.002;8.472;2023-07-20T10:26:13;29.90;45.70
14735;DHT22;7458;49.002;8.472;2023-07-20T10:28:40;30.40;45.50
14735;DHT22;7458;49.002;8.472;2023-07-20T10:31:08;30.40;42.40
14735;DHT22;7458;49.002;8.472;2023-07-20T10:33:37;30.10;41.60
14735;DHT22;7458;49.002;8.472;2023-07-20T10:36:04;30.00;42.30
14735;DHT22;7458;49.002;8.472;2023-07-20T10:41:18;30.30;44.00
14735;DHT22;7458;49.002;8.472;2023-07-20T10:43:46;30.70;41.60
14735;DHT22;7458;49.002;8.472;2023-07-20T10:46:13;31.10;40.50
14735;DHT22;7458;49.002;8.472;2023-07-20T10:48:59;31.20;40.70
14735;DHT22;7458;49.002;8.472;2023-07-20T10:51:28;31.00;47.30
14735;DHT22;7458;49.002;8.472;2023-07-20T10:53:57;30.50;40.30
14735;DHT22;7458;49.002;8.472;2023-07-20T10:56:26;30.00;41.40
14735;DHT22;7458;49.002;8.472;2023-07-20T10:58:59;29.90;42.10
14735;DHT22;7458;49.002;8.472;2023-07-20T11:01:30;28.10;50.30
14735;DHT22;7458;49.002;8.472;2023-07-20T11:04:00;28.80;43.40
14735;DHT22;7458;49.002;8.472;2023-07-20T11:09:08;28.50;52.70
14735;DHT22;7458;49.002;8.472;2023-07-20T11:11:47;28.10;46.80
14735;DHT22;7458;49.002;8.472;2023-07-20T11:14:24;28.00;44.50
14735;DHT22;7458;49.002;8.472;2023-07-20T11:16:52;29.50;52.20
14735;DHT22;7458;49.002;8.472;2023-07-20T11:19:22;29.40;44.80
14735;DHT22;7458;49.002;8.472;2023-07-20T11:21:51;29.80;48.10
14735;DHT22;7458;49.002;8.472;2023-07-20T11:24:18;29.60;47.60
14735;DHT22;7458;49.002;8.472;2023-07-20T11:26:46;29.80;48.00
14735;DHT22;7458;49.002;8.472;2023-07-20T11:29:15;29.80;40.90
14735;DHT22;7458;49.002;8.472;2023-07-20T11:31:43;29.50;41.20
14735;DHT22;7458;49.002;8.472;2023-07-20T11:34:12;29.70;49.20
14735;DHT22;7458;49.002;8.472;2023-07-20T11:36:44;29.60;41.90
14735;DHT22;7458;49.002;8.472;2023-07-20T11:39:13;29.50;48.30
14735;DHT22;7458;49.002;8.472;2023-07-20T11:41:51;29.50;41.30
14735;DHT22;7458;49.002;8.472;2023-07-20T11:44:19;29.40;41.30
14735;DHT22;7458;49.002;8.472;2023-07-20T11:47:07;29.80;47.60
14735;DHT22;7458;49.002;8.472;2023-07-20T11:49:43;29.20;48.10
14735;DHT22;7458;49.002;8.472;2023-07-20T11:52:16;29.10;48.20
14735;DHT22;7458;49.002;8.472;2023-07-20T11:54:43;28.90;48.90
14735;DHT22;7458;49.002;8.472;2023-07-20T11:57:19;29.00;41.70
14735;DHT22;7458;49.002;8.472;2023-07-20T12:00:00;29.50;41.70
14735;DHT22;7458;49.002;8.472;2023-07-20T12:02:30;29.90;40.60
14735;DHT22;7458;49.002;8.472;2023-07-20T12:04:57;30.20;39.30
14735;DHT22;7458;49.002;8.472;2023-07-20T12:07:27;30.10;39.30
14735;DHT22;7458;49.002;8.472;2023-07-20T12:10:06;29.80;46.50
14735;DHT22;7458;49.002;8.472;2023-07-20T12:12:40;29.60;46.30
14735;DHT22;7458;49.002;8.472;2023-07-20T12:15:17;29.90;39.30
14735;DHT22;7458;49.002;8.472;2023-07-20T12:17:45;30.00;46.80
14735;DHT22;7458;49.002;8.472;2023-07-20T12:20:12;30.90;46.20
14735;DHT22;7458;49.002;8.472;2023-07-20T12:22:43;30.10;45.10
14735;DHT22;7458;49.002;8.472;2023-07-20T12:25:09;30.20;38.50
14735;DHT22;7458;49.002;8.472;2023-07-20T12:27:36;29.70;46.00
14735;DHT22;7458;49.002;8.472;2023-07-20T12:30:07;29.60;38.80
14735;DHT22;7458;49.002;8.472;2023-07-20T12:32:33;29.60;39.70
14735;DHT22;7458;49.002;8.472;2023-07-20T12:34:59;30.10;45.20
14735;DHT22;7458;49.002;8.472;2023-07-20T12:37:26;30.10;44.90
14735;DHT22;7458;49.002;8.472;2023-07-20T12:39:52;29.70;45.10
14735;DHT22;7458;49.002;8.472;2023-07-20T12:42:18;29.70;38.10
14735;DHT22;7458;49.002;8.472;2023-07-20T12:44:44;29.70;38.70
14735;DHT22;7458;49.002;8.472;2023-07-20T12:47:10;29.90;46.20
14735;DHT22;7458;49.002;8.472;2023-07-20T12:49:36;29.90;39.50
14735;DHT22;7458;49.002;8.472;2023-07-20T12:52:01;29.80;39.30
14735;DHT22;7458;49.002;8.472;2023-07-20T12:54:27;29.90;38.70
14735;DHT22;7458;49.002;8.472;2023-07-20T12:56:53;29.90;44.30
14735;DHT22;7458;49.002;8.472;2023-07-20T12:59:19;30.00;38.20
14735;DHT22;7458;49.002;8.472;2023-07-20T13:01:44;29.80;38.30
14735;DHT22;7458;49.002;8.472;2023-07-20T13:04:10;29.70;45.10
14735;DHT22;7458;49.002;8.472;2023-07-20T13:06:36;29.70;45.10
14735;DHT22;7458;49.002;8.472;2023-07-20T13:09:02;29.90;44.50
14735;DHT22;7458;49.002;8.472;2023-07-20T13:11:28;29.70;43.00
14735;DHT22;7458;49.002;8.472;2023-07-20T13:13:54;29.80;42.60
14735;DHT22;7458;49.002;8.472;2023-07-20T13:16:20;29.80;36.20
14735;DHT22;7458;49.002;8.472;2023-07-20T13:18:46;29.50;42.60
14735;DHT22;7458;49.002;8.472;2023-07-20T13:21:12;29.80;37.10
14735;DHT22;7458;49.002;8.472;2023-07-20T13:23:38;29.90;37.20
14735;DHT22;7458;49.002;8.472;2023-07-20T13:26:04;29.50;37.90
14735;DHT22;7458;49.002;8.472;2023-07-20T13:28:31;29.40;38.40
14735;DHT22;7458;49.002;8.472;2023-07-20T13:30:56;29.60;38.70
14735;DHT22;7458;49.002;8.472;2023-07-20T13:33:22;29.30;38.80
14735;DHT22;7458;49.002;8.472;2023-07-20T13:35:48;29.40;38.80
14735;DHT22;7458;49.002;8.472;2023-07-20T13:38:14;29.50;38.20
14735;DHT22;7458;49.002;8.472;2023-07-20T13:40:39;29.30;43.40
14735;DHT22;7458;49.002;8.472;2023-07-20T13:43:05;29.50;37.60
14735;DHT22;7458;49.002;8.472;2023-07-20T13:45:31;29.60;37.80
14735;DHT22;7458;49.002;8.472;2023-07-20T13:47:57;29.70;37.60
14735;DHT22;7458;49.002;8.472;2023-07-20T13:50:23;29.60;37.40
14735;DHT22;7458;49.002;8.472;2023-07-20T13:52:48;29.50;38.00
14735;DHT22;7458;49.002;8.472;2023-07-20T13:55:14;29.50;36.80
14735;DHT22;7458;49.002;8.472;2023-07-20T13:57:40;29.20;36.40
14735;DHT22;7458;49.002;8.472;2023-07-20T14:00:06;29.30;37.00
14735;DHT22;7458;49.002;8.472;2023-07-20T14:02:36;29.10;36.80
14735;DHT22;7458;49.002;8.472;2023-07-20T14:05:02;29.30;42.90
14735;DHT22;7458;49.002;8.472;2023-07-20T14:07:28;29.10;37.00
14735;DHT22;7458;49.002;8.472;2023-07-20T14:09:54;29.20;36.30
14735;DHT22;7458;49.002;8.472;2023-07-20T14:12:19;28.80;41.80
14735;DHT22;7458;49.002;8.472;2023-07-20T14:14:45;29.10;36.50
14735;DHT22;7458;49.002;8.472;2023-07-20T14:17:11;28.90;36.20
14735;DHT22;7458;49.002;8.472;2023-07-20T14:19:37;29.00;36.30
14735;DHT22;7458;49.002;8.472;2023-07-20T14:22:04;28.90;40.40
14735;DHT22;7458;49.002;8.472;2023-07-20T14:24:30;29.10;37.20
14735;DHT22;7458;49.002;8.472;2023-07-20T14:26:56;28.90;37.20
14735;DHT22;7458;49.002;8.472;2023-07-20T14:29:22;28.80;36.80
14735;DHT22;7458;49.002;8.472;2023-07-20T14:31:47;28.80;39.80
14735;DHT22;7458;49.002;8.472;2023-07-20T14:34:16;28.80;37.00
14735;DHT22;7458;49.002;8.472;2023-07-20T14:36:44;28.70;36.90
14735;DHT22;7458;49.002;8.472;2023-07-20T14:39:10;28.30;41.10
14735;DHT22;7458;49.002;8.472;2023-07-20T14:41:36;28.50;38.20
14735;DHT22;7458;49.002;8.472;2023-07-20T14:44:02;28.60;37.40
14735;DHT22;7458;49.002;8.472;2023-07-20T14:46:28;28.60;36.60
14735;DHT22;7458;49.002;8.472;2023-07-20T14:48:54;28.80;37.10
14735;DHT22;7458;49.002;8.472;2023-07-20T14:51:19;28.90;37.00
14735;DHT22;7458;49.002;8.472;2023-07-20T14:53:45;28.70;39.30
14735;DHT22;7458;49.002;8.472;2023-07-20T14:56:11;28.80;39.30
14735;DHT22;7458;49.002;8.472;2023-07-20T14:58:37;28.80;36.50
14735;DHT22;7458;49.002;8.472;2023-07-20T15:01:03;28.90;36.70
14735;DHT22;7458;49.002;8.472;2023-07-20T15:03:29;28.90;36.70
14735;DHT22;7458;49.002;8.472;2023-07-20T15:05:56;28.60;38.60
14735;DHT22;7458;49.002;8.472;2023-07-20T15:08:22;28.60;36.80
14735;DHT22;7458;49.002;8.472;2023-07-20T15:10:48;28.70;37.10
14735;DHT22;7458;49.002;8.472;2023-07-20T15:13:14;28.70;36.60
14735;DHT22;7458;49.002;8.472;2023-07-20T15:15:40;28.50;36.80
14735;DHT22;7458;49.002;8.472;2023-07-20T15:18:07;28.50;35.70
14735;DHT22;7458;49.002;8.472;2023-07-20T15:20:34;28.60;44.30
14735;DHT22;7458;49.002;8.472;2023-07-20T15:23:00;28.60;36.10
14735;DHT22;7458;49.002;8.472;2023-07-20T15:25:25;29.10;44.90
14735;DHT22;7458;49.002;8.472;2023-07-20T15:27:51;28.70;37.10
14735;DHT22;7458;49.002;8.472;2023-07-20T15:30:17;29.10;41.80
14735;DHT22;7458;49.002;8.472;2023-07-20T15:32:44;29.10;42.90
14735;DHT22;7458;49.002;8.472;2023-07-20T15:35:10;28.00;43.60
14735;DHT22;7458;49.002;8.472;2023-07-20T15:37:36;27.30;42.30
14735;DHT22;7458;49.002;8.472;2023-07-20T15:40:02;28.70;35.70
14735;DHT22;7458;49.002;8.472;2023-07-20T15:42:31;28.60;42.10
14735;DHT22;7458;49.002;8.472;2023-07-20T15:44:57;28.40;42.80
14735;DHT22;7458;49.002;8.472;2023-07-20T15:47:23;28.40;34.90
14735;DHT22;7458;49.002;8.472;2023-07-20T15:49:49;28.40;34.80
14735;DHT22;7458;49.002;8.472;2023-07-20T15:52:15;28.40;35.60
14735;DHT22;7458;49.002;8.472;2023-07-20T15:54:42;28.60;36.00
14735;DHT22;7458;49.002;8.472;2023-07-20T15:57:08;28.80;36.10
14735;DHT22;7458;49.002;8.472;2023-07-20T15:59:34;28.40;44.10
14735;DHT22;7458;49.002;8.472;2023-07-20T16:02:00;28.70;36.60
14735;DHT22;7458;49.002;8.472;2023-07-20T16:04:27;28.70;42.40
14735;DHT22;7458;49.002;8.472;2023-07-20T16:06:52;28.70;36.20
14735;DHT22;7458;49.002;8.472;2023-07-20T16:09:18;28.70;35.80
14735;DHT22;7458;49.002;8.472;2023-07-20T16:11:45;28.70;35.70
14735;DHT22;7458;49.002;8.472;2023-07-20T16:14:11;29.10;43.10
14735;DHT22;7458;49.002;8.472;2023-07-20T16:16:37;28.80;36.30
14735;DHT22;7458;49.002;8.472;2023-07-20T16:19:03;29.00;36.30
14735;DHT22;7458;49.002;8.472;2023-07-20T16:21:29;28.80;41.80
14735;DHT22;7458;49.002;8.472;2023-07-20T16:23:57;28.90;41.50
14735;DHT22;7458;49.002;8.472;2023-07-20T16:26:24;29.00;35.60
14735;DHT22;7458;49.002;8.472;2023-07-20T16:28:50;29.10;35.40
14735;DHT22;7458;49.002;8.472;2023-07-20T16:31:17;28.90;41.30
14735;DHT22;7458;49.002;8.472;2023-07-20T16:33:44;29.50;41.50
14735;DHT22;7458;49.002;8.472;2023-07-20T16:36:15;28.70;42.30
14735;DHT22;7458;49.002;8.472;2023-07-20T16:38:43;28.80;41.80
14735;DHT22;7458;49.002;8.472;2023-07-20T16:41:10;28.80;36.10
14735;DHT22;7458;49.002;8.472;2023-07-20T16:43:37;29.00;36.00
14735;DHT22;7458;49.002;8.472;2023-07-20T16:46:05;28.80;36.10
14735;DHT22;7458;49.002;8.472;2023-07-20T16:48:33;28.80;36.30
14735;DHT22;7458;49.002;8.472;2023-07-20T16:51:00;28.80;36.20
14735;DHT22;7458;49.002;8.472;2023-07-20T16:53:27;28.70;41.30
14735;DHT22;7458;49.002;8.472;2023-07-20T16:55:53;28.70;35.40
14735;DHT22;7458;49.002;8.472;2023-07-20T16:58:23;28.70;35.50
14735;DHT22;7458;49.002;8.472;2023-07-20T17:00:51;28.60;42.00
14735;DHT22;7458;49.002;8.472;2023-07-20T17:03:24;28.60;36.80
14735;DHT22;7458;49.002;8.472;2023-07-20T17:05:50;28.70;35.90
14735;DHT22;7458;49.002;8.472;2023-07-20T17:08:16;28.70;42.60
14735;DHT22;7458;49.002;8.472;2023-07-20T17:10:42;28.60;36.20
14735;DHT22;7458;49.002;8.472;2023-07-20T17:13:08;28.60;36.10
14735;DHT22;7458;49.002;8.472;2023-07-20T17:15:36;28.60;36.50
14735;DHT22;7458;49.002;8.472;2023-07-20T17:18:04;28.50;36.90
14735;DHT22;7458;49.002;8.472;2023-07-20T17:20:30;28.30;43.20
14735;DHT22;7458;49.002;8.472;2023-07-20T17:22:56;28.40;37.20
14735;DHT22;7458;49.002;8.472;2023-07-20T17:25:22;28.40;36.30
14735;DHT22;7458;49.002;8.472;2023-07-20T17:27:48;28.40;41.90
14735;DHT22;7458;49.002;8.472;2023-07-20T17:30:14;28.50;41.40
14735;DHT22;7458;49.002;8.472;2023-07-20T17:32:40;28.10;41.70
14735;DHT22;7458;49.002;8.472;2023-07-20T17:35:06;28.20;37.60
14735;DHT22;7458;49.002;8.472;2023-07-20T17:37:32;28.20;37.00
14735;DHT22;7458;49.002;8.472;2023-07-20T17:40:06;28.20;37.10
14735;DHT22;7458;49.002;8.472;2023-07-20T17:42:35;28.30;43.10
14735;DHT22;7458;49.002;8.472;2023-07-20T17:45:01;28.10;37.00
14735;DHT22;7458;49.002;8.472;2023-07-20T17:47:27;27.80;43.40
14735;DHT22;7458;49.002;8.472;2023-07-20T17:49:52;27.90;37.40
14735;DHT22;7458;49.002;8.472;2023-07-20T17:52:18;27.90;37.40
14735;DHT22;7458;49.002;8.472;2023-07-20T17:54:44;27.90;45.60
14735;DHT22;7458;49.002;8.472;2023-07-20T17:57:09;28.80;46.30
14735;DHT22;7458;49.002;8.472;2023-07-20T17:59:35;28.00;45.40
14735;DHT22;7458;49.002;8.472;2023-07-20T18:02:04;28.00;45.20
14735;DHT22;7458;49.002;8.472;2023-07-20T18:04:30;28.30;45.80
14735;DHT22;7458;49.002;8.472;2023-07-20T18:06:56;27.60;45.10
14735;DHT22;7458;49.002;8.472;2023-07-20T18:09:22;28.60;46.00
14735;DHT22;7458;49.002;8.472;2023-07-20T18:14:14;27.80;46.00
14735;DHT22;7458;49.002;8.472;2023-07-20T18:16:40;27.60;46.30
14735;DHT22;7458;49.002;8.472;2023-07-20T18:19:05;27.70;46.30
14735;DHT22;7458;49.002;8.472;2023-07-20T18:21:31;27.00;45.90
14735;DHT22;7458;49.002;8.472;2023-07-20T18:23:57;27.50;46.70
14735;DHT22;7458;49.002;8.472;2023-07-20T18:28:49;27.70;46.70
14735;DHT22;7458;49.002;8.472;2023-07-20T18:31:15;27.50;46.60
14735;DHT22;7458;49.002;8.472;2023-07-20T18:33:40;27.40;47.00
14735;DHT22;7458;49.002;8.472;2023-07-20T18:36:07;28.10;44.20
14735;DHT22;7458;49.002;8.472;2023-07-20T18:38:33;27.30;42.10